Time;durP1;ratioP1;P1;durP2;ratioP2;P2;SDS_P1;SDS_P2;PMS_P1;PMS_P2;Temp;Humidity;BMP_temperature;BMP_pressure;BME280_temperature;BME280_humidity;BME280_pressure;Samples;Min_cycle;Max_cycle;Signal;HPM_P1;HPM_P2
2021/10/24 00:01:06;;;;;;;15.75;5.05;;;3.60;98.00;;;;;;6271536;22;20103;-76
2021/10/24 00:03:32;;;;;;;10.13;5.07;;;3.50;98.00;;;;;;6278451;22;20042;-75
2021/10/24 00:05:58;;;;;;;7.80;4.75;;;3.30;98.00;;;;;;6277270;22;20006;-76
2021/10/24 00:08:23;;;;;;;10.70;4.68;;;3.20;98.00;;;;;;6276278;22;20025;-75
2021/10/24 00:10:49;;;;;;;11.55;5.72;;;3.40;98.00;;;;;;6276297;22;19999;-76
2021/10/24 00:13:15;;;;;;;16.75;5.60;;;3.40;98.00;;;;;;6247637;22;19999;-75
2021/10/24 00:15:40;;;;;;;10.80;5.57;;;3.20;98.00;;;;;;6275494;22;20000;-76
2021/10/24 00:18:06;;;;;;;13.25;5.63;;;3.00;98.00;;;;;;6275993;22;20094;-76
2021/10/24 00:20:34;;;;;;;14.43;6.20;;;2.80;98.00;;;;;;6249699;22;20003;-76
2021/10/24 00:23:00;;;;;;;12.32;6.63;;;2.60;98.00;;;;;;6275629;22;20273;-76
2021/10/24 00:25:26;;;;;;;14.50;5.95;;;2.50;98.00;;;;;;6275059;22;20079;-75
2021/10/24 00:27:52;;;;;;;14.05;6.05;;;2.50;98.00;;;;;;6274570;22;20003;-75
2021/10/24 00:30:18;;;;;;;11.88;5.38;;;2.60;98.00;;;;;;6248982;22;20000;-75
2021/10/24 00:32:43;;;;;;;12.98;6.10;;;2.50;98.00;;;;;;6275640;22;20011;-75
2021/10/24 00:35:09;;;;;;;11.27;5.82;;;2.60;98.00;;;;;;6250635;22;20018;-75
2021/10/24 00:37:35;;;;;;;15.02;5.95;;;2.60;98.00;;;;;;6277508;22;20000;-75
2021/10/24 00:40:01;;;;;;;15.38;5.68;;;2.40;98.00;;;;;;6277378;22;20004;-75
2021/10/24 00:42:26;;;;;;;10.82;5.75;;;2.40;98.00;;;;;;6274762;22;19992;-75
2021/10/24 00:44:52;;;;;;;13.45;6.00;;;2.60;98.00;;;;;;6275645;22;20007;-75
2021/10/24 00:47:18;;;;;;;13.90;5.72;;;2.90;98.00;;;;;;6274878;22;20007;-75
2021/10/24 00:49:43;;;;;;;9.60;5.03;;;3.00;98.00;;;;;;6276701;22;20007;-75
2021/10/24 00:52:10;;;;;;;12.73;6.30;;;3.00;98.00;;;;;;6274003;22;20050;-76
2021/10/24 00:54:39;;;;;;;11.98;5.60;;;3.20;98.00;;;;;;6247843;22;20003;-74
2021/10/24 00:57:09;;;;;;;12.50;5.68;;;3.50;98.00;;;;;;6274914;22;20006;-75
2021/10/24 00:59:37;;;;;;;11.80;5.75;;;3.60;98.00;;;;;;6277363;22;20069;-75
2021/10/24 01:02:04;;;;;;;17.00;6.20;;;3.60;98.00;;;;;;6278590;22;20003;-76
2021/10/24 01:04:30;;;;;;;11.68;5.97;;;3.60;98.00;;;;;;6280641;22;20265;-75
2021/10/24 01:07:02;;;;;;;14.00;5.88;;;3.70;98.00;;;;;;6277509;22;20075;-75
2021/10/24 01:09:30;;;;;;;12.90;5.70;;;3.90;98.00;;;;;;6277316;22;20260;-75
2021/10/24 01:11:57;;;;;;;15.07;5.28;;;4.10;98.00;;;;;;6276175;22;20008;-76
2021/10/24 01:14:22;;;;;;;13.93;5.70;;;4.20;98.00;;;;;;6277333;22;20071;-76
2021/10/24 01:16:52;;;;;;;13.98;5.65;;;4.10;98.00;;;;;;6277369;22;20031;-75
2021/10/24 01:19:20;;;;;;;13.98;6.05;;;4.20;98.00;;;;;;6277116;22;20015;-75
2021/10/24 01:21:46;;;;;;;12.88;5.63;;;4.30;98.00;;;;;;6249839;22;20014;-76
2021/10/24 01:24:12;;;;;;;12.18;5.68;;;4.40;98.00;;;;;;6277832;22;20317;-75
2021/10/24 01:26:39;;;;;;;11.30;6.07;;;4.40;98.00;;;;;;6275799;22;19992;-75
2021/10/24 01:29:06;;;;;;;14.63;7.07;;;4.50;98.00;;;;;;6277452;22;20000;-76
2021/10/24 01:31:32;;;;;;;12.15;5.43;;;4.50;98.00;;;;;;6250841;22;20027;-76
2021/10/24 01:33:58;;;;;;;11.73;5.72;;;4.50;98.00;;;;;;6250721;22;20272;-76
2021/10/24 01:36:24;;;;;;;16.67;6.28;;;4.50;98.00;;;;;;6250730;22;20008;-76
2021/10/24 01:38:50;;;;;;;13.45;7.00;;;4.50;98.00;;;;;;6277582;22;20000;-75
2021/10/24 01:41:18;;;;;;;13.55;6.95;;;4.30;98.00;;;;;;6275818;22;19999;-75
2021/10/24 01:43:46;;;;;;;12.63;6.20;;;4.30;98.00;;;;;;6277493;22;20026;-73
2021/10/24 01:46:13;;;;;;;14.48;6.55;;;4.30;98.00;;;;;;6277722;22;20004;-74
2021/10/24 01:48:39;;;;;;;12.88;6.40;;;4.30;98.00;;;;;;6278120;22;20373;-75
2021/10/24 01:51:04;;;;;;;11.38;6.32;;;4.30;98.00;;;;;;6250266;22;20004;-75
2021/10/24 01:53:34;;;;;;;13.38;6.43;;;4.20;98.00;;;;;;6277228;22;20034;-75
2021/10/24 01:56:00;;;;;;;16.55;7.07;;;4.00;98.00;;;;;;6249879;22;20065;-78
2021/10/24 01:58:26;;;;;;;17.02;7.05;;;4.00;98.00;;;;;;6276987;22;20003;-75
2021/10/24 02:00:53;;;;;;;10.98;6.78;;;4.00;98.00;;;;;;6251241;22;20023;-75
2021/10/24 02:03:18;;;;;;;12.63;7.07;;;3.90;98.00;;;;;;6276511;22;20547;-75
2021/10/24 02:05:45;;;;;;;12.90;7.43;;;3.70;98.00;;;;;;6278525;22;20022;-76
2021/10/24 02:08:11;;;;;;;13.13;6.72;;;3.50;98.00;;;;;;6279058;22;20007;-77
2021/10/24 02:10:38;;;;;;;17.98;7.40;;;3.40;98.00;;;;;;6277346;22;20019;-76
2021/10/24 02:13:05;;;;;;;15.55;7.55;;;3.30;98.00;;;;;;6248034;22;20007;-75
2021/10/24 02:15:38;;;;;;;14.00;6.90;;;3.50;98.00;;;;;;6276079;22;19999;-75
2021/10/24 02:18:07;;;;;;;16.15;7.22;;;3.50;98.00;;;;;;6276547;22;20069;-75
2021/10/24 02:20:34;;;;;;;15.93;7.65;;;3.60;98.00;;;;;;6250074;22;20031;-75
2021/10/24 02:23:00;;;;;;;15.18;7.63;;;3.60;98.00;;;;;;6250372;22;20273;-75
2021/10/24 02:25:26;;;;;;;16.48;7.40;;;3.70;98.00;;;;;;6276080;22;20265;-76
2021/10/24 02:27:52;;;;;;;12.63;7.80;;;3.80;98.00;;;;;;6247965;22;20090;-76
2021/10/24 02:30:17;;;;;;;12.35;7.43;;;3.80;98.00;;;;;;6275859;22;20245;-75
2021/10/24 02:32:44;;;;;;;15.40;7.97;;;3.90;98.00;;;;;;6249549;22;20003;-75
2021/10/24 02:35:12;;;;;;;13.55;7.20;;;3.80;98.00;;;;;;6249400;22;20022;-75
2021/10/24 02:37:38;;;;;;;12.52;7.45;;;3.80;98.00;;;;;;6276232;22;20004;-76
2021/10/24 02:40:05;;;;;;;15.07;8.32;;;3.60;98.00;;;;;;6250283;22;20031;-75
2021/10/24 02:42:31;;;;;;;15.52;8.50;;;3.40;98.00;;;;;;6275604;22;19995;-76
2021/10/24 02:44:56;;;;;;;15.38;8.48;;;3.40;98.00;;;;;;6276832;22;20002;-77
2021/10/24 02:47:22;;;;;;;15.93;7.47;;;3.30;98.00;;;;;;6275946;22;20011;-75
2021/10/24 02:49:48;;;;;;;16.13;8.57;;;3.00;98.00;;;;;;6250928;22;20039;-77
2021/10/24 02:52:14;;;;;;;19.30;8.27;;;2.70;98.00;;;;;;6276085;22;20079;-75
2021/10/24 02:54:40;;;;;;;19.35;9.50;;;2.70;98.00;;;;;;6276858;22;20373;-75
2021/10/24 02:57:06;;;;;;;18.02;9.10;;;2.70;98.00;;;;;;6275279;22;20010;-76
2021/10/24 02:59:32;;;;;;;17.33;8.15;;;2.90;98.00;;;;;;6274271;22;20000;-75
2021/10/24 03:01:59;;;;;;;18.70;8.70;;;3.00;98.00;;;;;;6274582;22;20003;-76
2021/10/24 03:04:24;;;;;;;14.55;8.57;;;3.10;98.00;;;;;;6275036;22;19999;-75
2021/10/24 03:06:50;;;;;;;17.52;8.38;;;3.10;98.00;;;;;;6275467;22;20071;-75
2021/10/24 03:09:17;;;;;;;19.27;8.48;;;3.30;98.00;;;;;;6277608;22;20003;-76
2021/10/24 03:11:42;;;;;;;17.00;8.57;;;3.60;98.00;;;;;;6274157;22;20328;-76
2021/10/24 03:14:08;;;;;;;15.65;8.32;;;3.60;98.00;;;;;;6275875;22;20034;-76
2021/10/24 03:16:34;;;;;;;17.42;8.40;;;3.60;98.00;;;;;;6274462;22;20003;-76
2021/10/24 03:19:01;;;;;;;15.32;7.75;;;3.50;98.00;;;;;;6274998;22;20015;-76
2021/10/24 03:21:26;;;;;;;14.15;7.82;;;3.60;98.00;;;;;;6274124;22;20398;-76
2021/10/24 03:23:52;;;;;;;14.63;7.75;;;3.70;98.00;;;;;;6247562;22;20004;-76
2021/10/24 03:26:18;;;;;;;14.55;8.05;;;3.70;98.00;;;;;;6273889;22;20074;-75
2021/10/24 03:28:44;;;;;;;13.57;7.43;;;3.60;98.00;;;;;;6273999;22;20000;-74
2021/10/24 03:31:10;;;;;;;14.38;7.28;;;3.60;98.00;;;;;;6275281;22;20053;-76
2021/10/24 03:33:35;;;;;;;14.85;7.93;;;3.50;98.00;;;;;;6248174;22;20087;-76
2021/10/24 03:36:01;;;;;;;12.15;7.68;;;3.50;98.00;;;;;;6249072;22;20003;-75
2021/10/24 03:38:27;;;;;;;17.45;8.52;;;3.30;98.00;;;;;;6273061;22;20304;-75
2021/10/24 03:40:53;;;;;;;16.63;8.18;;;3.30;98.00;;;;;;6248825;22;20045;-76
2021/10/24 03:43:18;;;;;;;13.70;7.85;;;3.00;98.00;;;;;;6275108;22;20000;-76
2021/10/24 03:45:44;;;;;;;13.55;7.97;;;2.70;98.00;;;;;;6250023;22;20003;-75
2021/10/24 03:48:10;;;;;;;15.18;8.40;;;2.80;98.00;;;;;;6276861;22;20006;-76
2021/10/24 03:50:35;;;;;;;19.75;8.63;;;2.90;98.00;;;;;;6276783;22;20423;-75
2021/10/24 03:53:01;;;;;;;16.92;7.65;;;3.00;98.00;;;;;;6276034;22;20102;-76
2021/10/24 03:55:27;;;;;;;14.82;8.25;;;3.10;98.00;;;;;;6275455;22;20265;-75
2021/10/24 03:57:53;;;;;;;18.02;8.38;;;3.30;98.00;;;;;;6274908;22;20007;-76
2021/10/24 04:00:19;;;;;;;13.55;7.43;;;3.40;98.00;;;;;;6275094;22;20008;-75
2021/10/24 04:02:55;;;;;;;13.52;7.80;;;3.50;98.00;;;;;;6278120;22;20381;-75
2021/10/24 04:05:22;;;;;;;12.43;8.15;;;3.60;98.00;;;;;;6276941;22;19996;-75
2021/10/24 04:07:48;;;;;;;15.48;7.60;;;3.60;98.00;;;;;;6276416;22;20004;-75
2021/10/24 04:10:18;;;;;;;121.43;38.47;;;3.40;98.00;;;;;;6251290;22;20273;-77
2021/10/24 04:12:44;;;;;;;19.02;10.55;;;3.20;98.00;;;;;;6276350;22;20004;-75
2021/10/24 04:15:10;;;;;;;21.65;8.35;;;2.90;98.00;;;;;;6248898;22;20018;-76
2021/10/24 04:17:37;;;;;;;17.42;8.57;;;2.70;98.00;;;;;;6275858;22;20022;-76
2021/10/24 04:20:09;;;;;;;15.82;7.25;;;2.80;98.00;;;;;;6273934;22;20004;-75
2021/10/24 04:22:35;;;;;;;13.48;7.93;;;2.80;98.00;;;;;;6247629;22;20008;-76
2021/10/24 04:25:01;;;;;;;16.30;7.85;;;2.60;98.00;;;;;;6275375;22;20435;-76
2021/10/24 04:27:28;;;;;;;16.13;7.53;;;2.40;98.00;;;;;;6272884;22;20000;-76
2021/10/24 04:29:54;;;;;;;13.45;8.15;;;2.30;98.00;;;;;;6267210;22;20359;-75
2021/10/24 04:32:20;;;;;;;15.85;8.07;;;2.30;98.00;;;;;;6246749;22;20309;-75
2021/10/24 04:34:45;;;;;;;15.20;7.63;;;2.40;98.00;;;;;;6275315;22;20053;-75
2021/10/24 04:37:11;;;;;;;17.15;8.40;;;2.60;98.00;;;;;;6272944;22;20082;-75
2021/10/24 04:39:37;;;;;;;17.70;7.95;;;2.80;98.00;;;;;;6274870;22;19996;-74
2021/10/24 04:42:02;;;;;;;14.05;7.53;;;2.90;98.00;;;;;;6273484;22;20003;-75
2021/10/24 04:44:31;;;;;;;16.17;8.00;;;3.10;98.00;;;;;;6274845;22;20399;-75
2021/10/24 04:46:57;;;;;;;14.32;8.88;;;3.20;98.00;;;;;;6275117;22;20086;-75
2021/10/24 04:49:23;;;;;;;16.88;9.07;;;2.90;98.00;;;;;;6247948;22;20010;-76
2021/10/24 04:51:49;;;;;;;20.10;8.57;;;2.70;98.00;;;;;;6275229;22;20007;-77
2021/10/24 04:54:14;;;;;;;13.88;8.13;;;2.50;98.00;;;;;;6273346;22;20253;-77
2021/10/24 04:56:40;;;;;;;16.77;8.65;;;2.30;98.00;;;;;;6272759;22;20008;-77
2021/10/24 04:59:06;;;;;;;14.32;8.70;;;2.20;98.00;;;;;;6247377;22;20094;-77
2021/10/24 05:01:31;;;;;;;19.92;10.10;;;2.10;98.00;;;;;;6247740;22;20115;-76
2021/10/24 05:03:57;;;;;;;18.63;9.95;;;2.00;98.00;;;;;;6276195;22;20069;-76
2021/10/24 05:06:23;;;;;;;22.35;11.50;;;1.90;98.00;;;;;;6275385;22;19999;-76
2021/10/24 05:08:51;;;;;;;19.52;11.23;;;1.70;98.00;;;;;;6275425;22;20008;-75
2021/10/24 05:11:17;;;;;;;20.48;11.18;;;1.70;98.00;;;;;;6246614;22;20011;-75
2021/10/24 05:13:42;;;;;;;20.58;11.45;;;1.50;98.00;;;;;;6274040;22;20365;-76
2021/10/24 05:16:08;;;;;;;25.95;11.32;;;1.40;98.00;;;;;;6273107;22;20019;-76
2021/10/24 05:18:34;;;;;;;22.67;12.13;;;1.40;97.90;;;;;;6199037;22;1130083;-76
2021/10/24 05:20:59;;;;;;;22.13;12.48;;;1.30;98.00;;;;;;6248843;22;20248;-76
2021/10/24 05:23:25;;;;;;;16.08;10.00;;;1.30;98.00;;;;;;6249416;22;20008;-76
2021/10/24 05:25:51;;;;;;;25.17;11.50;;;1.30;97.60;;;;;;6275855;22;20003;-76
2021/10/24 05:28:17;;;;;;;21.23;12.15;;;1.20;97.70;;;;;;6275379;22;19999;-75
2021/10/24 05:30:43;;;;;;;22.33;10.65;;;1.20;97.40;;;;;;6250003;22;20562;-76
2021/10/24 05:33:08;;;;;;;22.48;11.50;;;1.10;97.30;;;;;;6275857;22;20087;-75
2021/10/24 05:35:34;;;;;;;28.83;12.07;;;1.10;96.90;;;;;;6275523;22;20004;-75
2021/10/24 05:38:00;;;;;;;20.60;11.70;;;1.10;97.10;;;;;;6275465;22;20051;-75
2021/10/24 05:40:26;;;;;;;17.80;11.27;;;1.10;97.40;;;;;;6274783;22;20393;-75
2021/10/24 05:42:51;;;;;;;19.80;11.68;;;0.90;96.70;;;;;;6273392;22;20456;-76
2021/10/24 05:45:18;;;;;;;22.65;13.02;;;0.90;97.10;;;;;;6274109;22;19996;-75
2021/10/24 05:47:44;;;;;;;22.75;12.25;;;0.80;97.20;;;;;;6274573;22;20134;-75
2021/10/24 05:50:10;;;;;;;24.50;12.80;;;0.70;97.50;;;;;;6275588;22;20030;-75
2021/10/24 05:52:36;;;;;;;27.27;11.98;;;0.50;97.10;;;;;;6249184;22;20003;-75
2021/10/24 05:55:03;;;;;;;27.38;12.93;;;0.40;96.90;;;;;;6276468;22;20011;-76
2021/10/24 05:57:29;;;;;;;24.13;12.35;;;0.40;96.40;;;;;;6272926;22;20393;-76
2021/10/24 05:59:54;;;;;;;21.48;11.40;;;0.50;96.20;;;;;;6248810;22;20086;-75
2021/10/24 06:02:20;;;;;;;25.10;13.35;;;0.50;96.40;;;;;;6248528;22;19999;-76
2021/10/24 06:04:48;;;;;;;26.60;12.85;;;0.50;95.90;;;;;;6276215;22;19996;-76
2021/10/24 06:07:14;;;;;;;24.10;12.43;;;0.40;95.80;;;;;;6275609;22;20004;-76
2021/10/24 06:09:43;;;;;;;25.30;12.75;;;0.40;95.80;;;;;;6274103;22;20010;-76
2021/10/24 06:12:14;;;;;;;27.85;14.75;;;0.40;95.80;;;;;;6271363;22;20008;-76
2021/10/24 06:14:41;;;;;;;27.80;13.70;;;0.60;95.00;;;;;;6278142;22;20054;-76
2021/10/24 06:17:08;;;;;;;35.33;16.05;;;0.60;95.40;;;;;;6274923;22;20633;-76
2021/10/24 06:19:37;;;;;;;26.63;15.15;;;0.40;95.60;;;;;;6275360;22;20105;-75
2021/10/24 06:22:04;;;;;;;27.30;15.57;;;0.40;95.10;;;;;;6249313;22;19999;-76
2021/10/24 06:24:29;;;;;;;25.33;13.32;;;0.40;95.40;;;;;;6275936;22;20277;-76
2021/10/24 06:26:55;;;;;;;23.20;14.23;;;0.20;95.60;;;;;;6274399;22;20006;-76
2021/10/24 06:29:22;;;;;;;22.25;13.25;;;0.20;95.00;;;;;;6243980;22;20430;-76
2021/10/24 06:31:47;;;;;;;23.90;13.60;;;0.20;95.30;;;;;;6270889;22;20004;-75
2021/10/24 06:34:13;;;;;;;25.92;15.15;;;0.20;94.30;;;;;;6249076;22;20004;-76
2021/10/24 06:36:39;;;;;;;25.52;13.57;;;0.20;95.40;;;;;;6275512;22;20008;-75
2021/10/24 06:39:04;;;;;;;21.27;12.48;;;0.00;95.60;;;;;;6272066;22;20122;-76
2021/10/24 06:41:30;;;;;;;28.80;14.25;;;0.00;94.90;;;;;;6273705;22;20003;-75
2021/10/24 06:43:56;;;;;;;30.92;16.35;;;0.00;94.80;;;;;;6249615;22;20089;-76
2021/10/24 06:46:21;;;;;;;30.33;16.70;;;0.20;93.60;;;;;;6275620;22;20079;-76
2021/10/24 06:48:47;;;;;;;30.17;17.65;;;0.30;94.00;;;;;;6274721;22;20031;-76
2021/10/24 06:51:17;;;;;;;35.78;17.67;;;0.40;94.80;;;;;;6275251;22;20014;-75
2021/10/24 06:53:43;;;;;;;29.85;19.55;;;0.30;94.70;;;;;;6275913;22;20308;-77
2021/10/24 06:56:09;;;;;;;26.80;15.45;;;0.40;94.30;;;;;;6273778;22;20004;-75
2021/10/24 06:58:34;;;;;;;27.90;17.88;;;0.40;94.60;;;;;;6275834;22;20082;-75
2021/10/24 07:01:08;;;;;;;30.23;17.15;;;0.40;94.60;;;;;;6248350;22;20365;-75
2021/10/24 07:03:35;;;;;;;28.85;16.50;;;0.50;94.00;;;;;;6274428;22;19996;-76
2021/10/24 07:06:00;;;;;;;29.13;16.42;;;0.60;94.30;;;;;;6248955;22;20018;-75
2021/10/24 07:08:26;;;;;;;28.35;15.75;;;0.70;94.50;;;;;;6273569;22;20004;-75
2021/10/24 07:10:52;;;;;;;26.92;18.45;;;0.80;94.20;;;;;;6275730;22;20058;-75
2021/10/24 07:13:18;;;;;;;26.33;16.00;;;0.90;94.30;;;;;;6272073;22;20000;-76
2021/10/24 07:15:43;;;;;;;56.15;32.95;;;1.10;94.00;;;;;;6276536;22;20091;-76
2021/10/24 07:18:10;;;;;;;36.38;21.75;;;1.30;94.20;;;;;;6249536;22;20018;-76
2021/10/24 07:20:36;;;;;;;27.55;16.60;;;1.40;94.60;;;;;;6274948;22;20000;-76
2021/10/24 07:23:01;;;;;;;28.95;19.05;;;1.50;94.30;;;;;;6274667;22;20065;-77
2021/10/24 07:25:27;;;;;;;25.80;16.05;;;1.70;94.60;;;;;;6248372;22;20361;-76
2021/10/24 07:27:53;;;;;;;24.95;13.68;;;1.90;95.20;;;;;;6271715;22;20073;-76
2021/10/24 07:30:22;;;;;;;29.33;13.75;;;2.00;95.20;;;;;;6273940;22;20004;-75
2021/10/24 07:32:48;;;;;;;19.65;12.00;;;2.30;95.60;;;;;;6274332;22;20008;-75
2021/10/24 07:35:14;;;;;;;23.25;12.10;;;2.40;96.30;;;;;;6274559;22;20007;-75
2021/10/24 07:37:40;;;;;;;19.15;11.05;;;2.50;96.60;;;;;;6274850;22;19999;-75
2021/10/24 07:40:10;;;;;;;21.92;12.55;;;2.60;97.50;;;;;;6247469;22;20086;-75
2021/10/24 07:42:37;;;;;;;19.08;11.10;;;2.80;98.00;;;;;;6246300;22;20012;-77
2021/10/24 07:45:03;;;;;;;23.63;10.80;;;3.00;98.00;;;;;;6274526;22;20026;-75
2021/10/24 07:47:32;;;;;;;17.80;9.93;;;3.20;98.00;;;;;;6274752;22;20004;-76
2021/10/24 07:49:59;;;;;;;15.65;9.25;;;3.40;98.00;;;;;;6275672;22;20037;-77
2021/10/24 07:52:28;;;;;;;13.00;7.35;;;3.90;98.00;;;;;;6247751;22;20012;-76
2021/10/24 07:54:54;;;;;;;13.10;7.18;;;4.90;98.00;;;;;;6247740;22;20476;-87
2021/10/24 07:57:21;;;;;;;13.07;6.72;;;6.50;98.00;;;;;;6273777;22;20011;-77
2021/10/24 07:59:47;;;;;;;13.05;6.03;;;7.60;98.00;;;;;;6275158;22;20016;-77
2021/10/24 08:02:18;;;;;;;9.95;5.43;;;8.70;96.40;;;;;;6273981;22;20007;-76
2021/10/24 08:04:45;;;;;;;8.77;4.68;;;9.70;91.80;;;;;;6275317;22;19999;-76
2021/10/24 08:07:10;;;;;;;10.23;4.35;;;11.10;87.10;;;;;;6247305;22;20098;-77
2021/10/24 08:09:36;;;;;;;8.57;4.53;;;12.30;82.10;;;;;;6247131;22;20008;-77
2021/10/24 08:12:02;;;;;;;7.65;3.83;;;13.70;76.10;;;;;;6272687;22;20008;-76
2021/10/24 08:14:28;;;;;;;7.95;4.05;;;12.90;74.10;;;;;;6248991;22;20004;-77
2021/10/24 08:16:54;;;;;;;10.40;4.00;;;12.40;76.10;;;;;;6276123;22;20008;-76
2021/10/24 08:19:20;;;;;;;7.00;3.85;;;12.00;78.60;;;;;;6277982;22;20012;-76
2021/10/24 08:21:48;;;;;;;7.13;3.85;;;12.30;76.30;;;;;;6277073;22;20007;-76
2021/10/24 08:24:15;;;;;;;7.82;3.80;;;12.80;76.20;;;;;;6276805;22;19996;-76
2021/10/24 08:26:41;;;;;;;7.60;3.83;;;13.90;74.50;;;;;;6268632;22;20400;-76
2021/10/24 08:29:07;;;;;;;8.73;3.70;;;14.50;71.00;;;;;;6271729;22;20004;-76
2021/10/24 08:31:33;;;;;;;6.60;3.50;;;15.20;69.70;;;;;;6277843;22;20436;-78
2021/10/24 08:34:00;;;;;;;8.90;3.55;;;15.30;68.20;;;;;;6278680;22;20082;-76
2021/10/24 08:36:27;;;;;;;7.88;4.00;;;15.30;69.20;;;;;;6279641;22;20266;-77
2021/10/24 08:38:54;;;;;;;7.68;3.70;;;15.10;68.40;;;;;;6248851;22;20004;-77
2021/10/24 08:41:27;;;;;;;6.90;3.85;;;14.70;70.00;;;;;;6277724;22;20620;-77
2021/10/24 08:43:58;;;;;;;8.40;4.03;;;14.90;69.80;;;;;;6278124;22;20018;-76
2021/10/24 08:46:24;;;;;;;8.60;4.05;;;15.00;70.20;;;;;;6279608;22;20295;-78
2021/10/24 08:48:50;;;;;;;7.90;3.92;;;15.60;68.90;;;;;;6280018;22;20004;-77
2021/10/24 08:51:19;;;;;;;10.90;4.30;;;15.90;66.50;;;;;;6253401;22;20006;-77
2021/10/24 08:53:46;;;;;;;12.77;5.60;;;15.90;66.40;;;;;;6280700;22;20007;-76
2021/10/24 08:56:21;;;;;;;12.48;5.22;;;15.40;67.50;;;;;;6279316;22;20000;-77
2021/10/24 08:58:48;;;;;;;9.70;6.32;;;15.20;67.90;;;;;;6280326;22;20000;-77
2021/10/24 09:01:14;;;;;;;13.30;7.63;;;14.70;68.90;;;;;;6279317;22;20430;-77
2021/10/24 09:04:04;;;;;;;10.95;5.82;;;15.10;69.20;;;;;;6280276;22;20076;-77
2021/10/24 09:06:57;;;;;;;9.07;4.50;;;15.30;68.00;;;;;;6279589;22;19999;-77
2021/10/24 09:09:32;;;;;;;9.80;4.82;;;15.20;68.90;;;;;;6252883;22;20321;-76
2021/10/24 09:11:59;;;;;;;8.88;4.50;;;15.50;68.00;;;;;;6278895;22;20079;-77
2021/10/24 09:14:56;;;;;;;14.20;5.88;;;16.20;67.30;;;;;;6277691;22;20004;-75
2021/10/24 09:17:24;;;;;;;13.35;6.15;;;17.40;64.30;;;;;;6196079;22;20011;-76
2021/10/24 09:19:53;;;;;;;8.48;4.50;;;17.60;63.40;;;;;;6278934;22;20007;-77
2021/10/24 09:22:32;;;;;;;7.90;3.67;;;17.30;63.90;;;;;;6279323;22;20011;-75
2021/10/24 09:25:03;;;;;;;7.82;4.18;;;17.00;64.50;;;;;;6279192;22;20045;-76
2021/10/24 09:27:47;;;;;;;7.00;3.35;;;17.30;64.50;;;;;;6248993;22;20006;-76
2021/10/24 09:30:16;;;;;;;6.70;3.20;;;17.00;64.20;;;;;;6279512;22;20023;-75
2021/10/24 09:33:03;;;;;;;8.32;4.60;;;17.00;63.80;;;;;;6279206;22;20357;-76
2021/10/24 09:35:34;;;;;;;10.95;5.30;;;16.30;68.10;;;;;;6251464;22;20381;-76
2021/10/24 09:38:15;;;;;;;12.32;5.38;;;15.60;69.40;;;;;;6279684;22;19999;-76
2021/10/24 09:40:46;;;;;;;9.13;4.50;;;15.40;69.10;;;;;;6278790;22;20341;-75
2021/10/24 09:43:24;;;;;;;12.32;5.20;;;15.40;69.50;;;;;;6277812;22;20007;-75
2021/10/24 09:46:08;;;;;;;12.23;6.35;;;15.20;69.90;;;;;;6252941;22;20273;-75
2021/10/24 09:48:35;;;;;;;;;;;15.30;69.80;;;;;;6279202;22;20004;-75
2021/10/24 09:51:12;;;;;;;12.75;6.05;;;15.30;70.10;;;;;;6279002;22;19903;-76
2021/10/24 09:53:44;;;;;;;12.45;5.75;;;15.40;70.70;;;;;;6252418;22;20018;-76
2021/10/24 09:56:16;;;;;;;10.52;5.50;;;16.00;69.30;;;;;;6251752;22;20011;-75
2021/10/24 09:58:50;;;;;;;9.05;5.80;;;16.20;68.80;;;;;;6278638;22;20376;-76
2021/10/24 10:01:19;;;;;;;9.73;5.22;;;16.40;68.20;;;;;;6279355;22;20026;-76
2021/10/24 10:03:49;;;;;;;10.75;5.90;;;16.70;68.10;;;;;;6276347;22;20004;-76
2021/10/24 10:06:33;;;;;;;10.02;5.72;;;16.10;69.00;;;;;;6251209;22;20023;-76
2021/10/24 10:08:58;;;;;;;9.30;5.68;;;16.20;69.30;;;;;;6279489;22;20034;-76
2021/10/24 10:11:45;;;;;;;10.32;5.13;;;16.00;69.70;;;;;;6275349;22;20365;-75
2021/10/24 10:14:19;;;;;;;13.35;6.00;;;16.10;69.10;;;;;;6276672;22;20014;-77
2021/10/24 10:16:52;;;;;;;11.70;5.70;;;17.10;67.60;;;;;;6277758;22;20008;-76
2021/10/24 10:19:29;;;;;;;11.40;6.13;;;17.10;67.10;;;;;;6278153;22;20019;-76
2021/10/24 10:21:57;;;;;;;11.55;5.57;;;16.20;68.70;;;;;;6251250;22;20000;-75
2021/10/24 10:24:34;;;;;;;8.02;4.55;;;16.00;68.90;;;;;;6275987;22;20007;-76
2021/10/24 10:27:23;;;;;;;11.90;5.53;;;16.00;68.80;;;;;;6246925;22;20010;-75
2021/10/24 10:29:55;;;;;;;11.45;5.38;;;14.90;71.60;;;;;;6252026;22;20008;-75
2021/10/24 10:32:32;;;;;;;9.35;5.20;;;15.30;71.40;;;;;;6279116;22;19999;-75
2021/10/24 10:34:58;;;;;;;9.50;5.35;;;15.40;72.30;;;;;;6279118;22;20007;-75
2021/10/24 10:37:50;;;;;;;9.02;5.47;;;15.50;72.00;;;;;;6279373;22;20235;-77
2021/10/24 10:40:38;;;;;;;8.95;4.90;;;15.70;71.10;;;;;;6252747;22;20035;-76
2021/10/24 10:43:20;;;;;;;10.00;5.22;;;15.80;71.90;;;;;;6277957;22;19996;-76
2021/10/24 10:45:55;;;;;;;9.18;5.05;;;15.20;72.20;;;;;;6251805;22;20385;-77
2021/10/24 10:48:46;;;;;;;8.82;5.30;;;14.80;73.80;;;;;;6279153;22;19995;-77
2021/10/24 10:51:18;;;;;;;10.07;5.10;;;14.80;74.30;;;;;;6278857;22;19995;-77
2021/10/24 10:53:46;;;;;;;11.35;5.30;;;15.00;74.00;;;;;;6251736;22;20003;-77
2021/10/24 10:56:12;;;;;;;8.73;5.25;;;15.00;73.50;;;;;;6251232;22;20251;-77
2021/10/24 10:58:49;;;;;;;11.60;5.97;;;14.70;74.70;;;;;;6279781;22;20010;-77
2021/10/24 11:01:36;;;;;;;11.13;5.53;;;14.80;75.60;;;;;;6279581;22;20053;-76
2021/10/24 11:04:07;;;;;;;9.93;5.88;;;15.10;73.70;;;;;;6252817;22;20006;-76
2021/10/24 11:06:36;;;;;;;8.88;5.10;;;14.80;74.90;;;;;;6279556;22;20000;-76
2021/10/24 11:09:32;;;;;;;10.30;5.25;;;15.20;74.30;;;;;;6252672;22;20091;-77
2021/10/24 11:11:59;;;;;;;10.10;5.15;;;15.20;73.50;;;;;;6278119;22;20014;-77
2021/10/24 11:14:33;;;;;;;9.63;4.82;;;15.60;74.20;;;;;;6279640;22;20004;-77
2021/10/24 11:17:00;;;;;;;9.18;4.72;;;15.70;72.60;;;;;;6279462;22;20014;-76
2021/10/24 11:19:26;;;;;;;9.15;4.80;;;15.80;71.60;;;;;;6252988;22;20035;-77
2021/10/24 11:21:55;;;;;;;9.88;5.30;;;16.00;72.80;;;;;;6279721;22;20003;-76
2021/10/24 11:24:22;;;;;;;10.38;4.72;;;16.50;71.20;;;;;;6279828;22;20308;-77
2021/10/24 11:26:59;;;;;;;7.40;4.40;;;16.70;70.60;;;;;;6278192;22;20057;-77
2021/10/24 11:29:27;;;;;;;10.52;5.68;;;16.80;70.30;;;;;;6279505;22;20004;-76
2021/10/24 11:32:14;;;;;;;13.65;6.65;;;16.70;70.10;;;;;;6279606;22;20000;-77
2021/10/24 11:34:40;;;;;;;11.05;5.47;;;16.50;71.20;;;;;;6279646;22;20004;-77
2021/10/24 11:37:06;;;;;;;8.13;4.32;;;16.20;70.40;;;;;;6279714;22;20011;-77
2021/10/24 11:39:32;;;;;;;11.10;4.72;;;16.10;71.30;;;;;;6279644;22;20350;-77
2021/10/24 11:42:13;;;;;;;9.90;4.90;;;16.20;71.10;;;;;;6250910;22;20208;-77
2021/10/24 11:44:40;;;;;;;9.68;4.57;;;16.10;71.90;;;;;;6252731;22;19996;-77
2021/10/24 11:47:13;;;;;;;12.15;4.90;;;16.20;72.90;;;;;;6252876;22;20011;-77
2021/10/24 11:49:46;;;;;;;9.52;4.70;;;16.30;71.40;;;;;;6253036;22;20329;-78
2021/10/24 11:52:29;;;;;;;9.00;4.90;;;16.30;72.30;;;;;;6279494;22;20102;-77
2021/10/24 11:55:10;;;;;;;8.20;4.90;;;16.30;71.20;;;;;;6279752;22;20364;-76
2021/10/24 11:58:04;;;;;;;7.15;4.47;;;16.40;71.60;;;;;;6278445;22;20007;-77
2021/10/24 12:00:49;;;;;;;11.70;4.55;;;16.50;72.30;;;;;;6281155;22;20004;-77
2021/10/24 12:03:32;;;;;;;9.60;5.75;;;16.50;72.00;;;;;;6281520;22;20406;-77
2021/10/24 12:05:58;;;;;;;8.52;4.78;;;16.60;71.10;;;;;;6281553;22;20427;-76
2021/10/24 12:08:43;;;;;;;11.18;5.57;;;16.20;71.30;;;;;;6281540;22;19996;-76
2021/10/24 12:11:16;;;;;;;10.70;5.20;;;16.00;72.10;;;;;;6252653;22;20051;-77
2021/10/24 12:13:41;;;;;;;7.68;4.68;;;15.90;72.70;;;;;;6281686;22;20016;-77
2021/10/24 12:16:29;;;;;;;9.88;4.50;;;16.00;72.80;;;;;;6254806;22;20054;-77
2021/10/24 12:19:11;;;;;;;10.18;4.30;;;16.50;72.60;;;;;;6256763;22;20370;-77
2021/10/24 12:21:38;;;;;;;8.13;4.30;;;16.50;71.20;;;;;;6253638;22;20027;-77
2021/10/24 12:24:18;;;;;;;8.15;4.45;;;16.60;71.70;;;;;;6280884;22;19995;-77
2021/10/24 12:26:44;;;;;;;9.63;4.68;;;16.70;71.80;;;;;;6280011;22;20079;-76
2021/10/24 12:29:14;;;;;;;8.68;4.65;;;16.40;71.20;;;;;;6281397;22;20078;-77
2021/10/24 12:31:40;;;;;;;8.63;5.22;;;16.40;73.50;;;;;;6281215;22;20058;-76
2021/10/24 12:34:15;;;;;;;7.60;4.35;;;16.70;72.00;;;;;;6281108;22;20031;-77
2021/10/24 12:36:42;;;;;;;10.32;4.82;;;16.90;71.80;;;;;;6281347;22;20007;-77
2021/10/24 12:39:25;;;;;;;7.95;4.38;;;16.70;70.60;;;;;;6254351;22;20003;-77
2021/10/24 12:41:51;;;;;;;12.90;4.85;;;16.60;72.20;;;;;;6279670;22;19997;-76
2021/10/24 12:44:22;;;;;;;10.68;4.68;;;16.50;71.50;;;;;;6254131;22;20274;-77
2021/10/24 12:46:48;;;;;;;8.82;4.50;;;16.70;72.30;;;;;;6281262;22;20066;-77
2021/10/24 12:49:16;;;;;;;8.30;4.32;;;17.00;71.60;;;;;;6279342;22;20038;-78
2021/10/24 12:51:45;;;;;;;8.05;4.50;;;16.90;71.30;;;;;;6280489;22;20010;-77